createdAt,value
2023-05-10T04:59:06.032Z,42.09
2023-05-10T05:04:11.452Z,42.39
2023-05-10T05:09:19.405Z,42.37
2023-05-10T05:14:27.798Z,41.84
2023-05-10T05:19:34.460Z,42.31
2023-05-10T05:24:41.369Z,42.17
2023-05-10T05:29:45.708Z,42.22
2023-05-10T05:34:50.226Z,41.41
2023-05-10T05:39:55.991Z,41.17
2023-05-10T05:45:00.582Z,42.23
2023-05-10T05:50:04.939Z,41.17
2023-05-10T05:55:09.851Z,41.93
2023-05-10T06:00:14.586Z,42.09
2023-05-10T06:05:19.175Z,42.38
2023-05-10T06:10:24.554Z,41.66
2023-05-10T06:15:29.676Z,42.08
2023-05-10T06:20:33.871Z,42.75
2023-05-10T06:25:38.439Z,42.60
2023-05-10T06:30:42.468Z,42.94
2023-05-10T06:35:46.584Z,42.93
2023-05-10T06:40:50.853Z,43.46
2023-05-10T06:45:54.935Z,43.74
2023-05-10T06:50:59.020Z,43.68
2023-05-10T06:56:04.689Z,44.07
2023-05-10T07:01:09.023Z,43.39
2023-05-10T07:06:29.286Z,43.90
2023-05-10T07:11:38.940Z,44.19
2023-05-10T07:16:43.260Z,44.25
2023-05-10T07:21:47.583Z,43.77
2023-05-10T07:26:51.840Z,43.08
2023-05-10T07:31:58.713Z,43.10
2023-05-10T07:37:03.736Z,42.81
2023-05-10T07:42:07.853Z,43.80
2023-05-10T07:47:12.856Z,42.88
2023-05-10T07:52:17.009Z,44.01
2023-05-10T07:57:21.407Z,42.94
2023-05-10T08:02:25.533Z,43.02
2023-05-10T08:07:29.797Z,43.53
2023-05-10T08:12:33.972Z,42.40
2023-05-10T08:17:38.272Z,42.36
2023-05-10T08:22:43.916Z,42.40
2023-05-10T08:27:48.083Z,42.25
2023-05-10T08:32:52.209Z,41.72
2023-05-10T08:37:56.816Z,42.03
2023-05-10T08:43:10.342Z,42.69
2023-05-10T08:48:16.249Z,41.91
2023-05-10T08:53:21.797Z,42.26
2023-05-10T08:58:25.922Z,41.07
2023-05-10T09:03:30.381Z,42.66
2023-05-10T09:08:35.559Z,40.97
2023-05-10T09:13:40.105Z,41.06
2023-05-10T09:18:44.230Z,41.40
2023-05-10T09:23:51.496Z,41.36
2023-05-10T09:28:59.514Z,41.71
2023-05-10T09:34:03.569Z,41.44
2023-05-10T09:39:07.789Z,40.20
2023-05-10T09:44:11.809Z,39.93
2023-05-10T09:49:16.834Z,40.05
2023-05-10T09:54:20.952Z,39.29
2023-05-10T09:59:27.919Z,40.30
2023-05-10T10:04:32.609Z,40.32
2023-05-10T10:09:37.047Z,38.66
2023-05-10T10:14:41.495Z,37.39
2023-05-10T10:19:47.015Z,37.36
2023-05-10T10:24:54.132Z,37.89
2023-05-10T10:30:21.648Z,36.84
2023-05-10T10:35:27.716Z,36.76
2023-05-10T10:40:35.257Z,35.97
2023-05-10T10:45:45.352Z,34.48
2023-05-10T10:50:49.635Z,34.56
2023-05-10T10:56:08.545Z,34.46
2023-05-10T11:01:18.099Z,34.19
2023-05-10T11:06:36.680Z,33.64
2023-05-10T11:11:57.172Z,33.33
2023-05-10T11:17:03.761Z,33.40
2023-05-10T11:22:15.220Z,32.61
2023-05-10T11:27:19.810Z,34.24
2023-05-10T11:32:24.848Z,33.61
2023-05-10T11:37:37.645Z,33.71
2023-05-10T11:42:41.860Z,33.38
2023-05-10T11:47:46.014Z,33.70
2023-05-10T11:52:58.298Z,33.45
2023-05-10T11:58:04.131Z,34.50
2023-05-10T12:03:09.579Z,34.19
2023-05-10T12:08:21.973Z,33.94
2023-05-10T12:13:27.240Z,33.79
2023-05-10T12:18:31.830Z,34.17
2023-05-10T12:23:36.043Z,34.05
2023-05-10T12:28:41.483Z,34.49
2023-05-10T12:33:47.302Z,33.76
2023-05-10T12:38:54.247Z,34.33
2023-05-10T12:43:58.606Z,34.65
2023-05-10T12:49:08.899Z,34.43
2023-05-10T12:54:13.548Z,34.94
2023-05-10T12:59:17.791Z,34.74
2023-05-10T13:04:22.881Z,35.37
2023-05-10T13:09:56.573Z,36.42
2023-05-10T13:15:02.196Z,35.14
2023-05-10T13:20:13.686Z,35.57
2023-05-10T13:25:19.712Z,35.12
2023-05-10T13:30:25.830Z,35.70
2023-05-10T13:35:31.334Z,36.30
2023-05-10T13:40:38.228Z,37.07
2023-05-10T13:45:43.696Z,35.71
2023-05-10T13:50:49.453Z,35.24
2023-05-10T13:55:54.950Z,35.76
2023-05-10T14:01:00.468Z,35.15
2023-05-10T14:06:06.444Z,35.35
2023-05-10T14:11:16.787Z,35.05
2023-05-10T14:16:23.001Z,34.84
2023-05-10T14:21:29.556Z,35.73
2023-05-10T14:26:36.004Z,34.42
2023-05-10T14:31:42.397Z,35.13
2023-05-10T14:36:47.956Z,35.19
2023-05-10T14:41:54.319Z,35.07
2023-05-10T14:47:01.424Z,35.62
2023-05-10T14:52:10.507Z,35.43
2023-05-10T14:57:16.945Z,34.84
2023-05-10T15:02:23.112Z,35.56
2023-05-10T15:07:28.965Z,36.48
2023-05-10T15:12:34.972Z,34.33
2023-05-10T15:17:40.672Z,34.24
2023-05-10T15:22:46.482Z,33.46
2023-05-10T15:27:52.785Z,34.00
2023-05-10T15:32:58.368Z,33.01
2023-05-10T15:38:05.211Z,33.24
2023-05-10T15:43:12.024Z,32.45
2023-05-10T15:48:18.041Z,32.27
2023-05-10T15:53:23.556Z,32.05
2023-05-10T15:58:28.902Z,31.89
2023-05-10T16:03:37.396Z,31.69
2023-05-10T16:08:43.375Z,31.21
2023-05-10T16:13:48.822Z,31.60
2023-05-10T16:18:54.904Z,31.22
2023-05-10T16:24:02.056Z,31.00
2023-05-10T16:29:10.053Z,30.87
2023-05-10T16:34:15.482Z,31.21
2023-05-10T16:39:22.109Z,31.29
2023-05-10T16:44:29.385Z,32.29
2023-05-10T16:49:36.985Z,31.90
2023-05-10T16:54:43.169Z,32.04
2023-05-10T16:59:49.967Z,31.94
2023-05-10T17:04:56.764Z,32.45
2023-05-10T17:10:02.873Z,31.89
2023-05-10T17:15:10.821Z,32.54
2023-05-10T17:20:23.499Z,33.01
2023-05-10T17:25:28.957Z,33.19
2023-05-10T17:30:34.776Z,32.88
2023-05-10T17:35:40.710Z,33.29
2023-05-10T17:40:46.281Z,33.68
2023-05-10T17:45:51.693Z,33.17
2023-05-10T17:50:57.695Z,33.76
2023-05-10T17:56:03.437Z,33.48
2023-05-10T18:01:11.304Z,33.63
2023-05-10T18:06:17.265Z,34.48
2023-05-10T18:11:25.188Z,34.27
2023-05-10T18:16:31.097Z,34.46
2023-05-10T18:21:37.202Z,34.71
2023-05-10T18:26:44.263Z,34.71
2023-05-10T18:31:50.098Z,34.06
2023-05-10T18:36:55.802Z,34.04
2023-05-10T18:42:01.572Z,34.42
2023-05-10T18:47:09.803Z,33.67
2023-05-10T18:52:16.553Z,34.03
2023-05-10T18:57:22.650Z,34.09
2023-05-10T19:02:28.415Z,34.02
2023-05-10T19:07:35.584Z,34.25
2023-05-10T19:12:47.868Z,34.76
2023-05-10T19:17:54.458Z,34.88
2023-05-10T19:23:09.852Z,35.18
2023-05-10T19:28:19.987Z,35.33
2023-05-10T19:33:26.911Z,34.92
2023-05-10T19:38:32.222Z,35.73
2023-05-10T19:43:39.020Z,35.58
2023-05-10T19:48:46.801Z,36.20
2023-05-10T19:53:53.429Z,36.20
2023-05-10T19:58:58.820Z,36.29
2023-05-10T20:04:04.241Z,36.97
2023-05-10T20:09:10.443Z,36.90
2023-05-10T20:14:15.909Z,37.43
2023-05-10T20:19:21.499Z,37.14
2023-05-10T20:24:27.113Z,37.09
2023-05-10T20:29:33.197Z,37.23
2023-05-10T20:34:38.729Z,37.29
2023-05-10T20:39:43.813Z,37.05
2023-05-10T20:44:49.219Z,37.22
2023-05-10T20:49:54.686Z,37.39
2023-05-10T20:55:01.852Z,37.45
2023-05-10T21:00:10.039Z,37.76
2023-05-10T21:05:15.641Z,37.81
2023-05-10T21:10:22.113Z,37.89
2023-05-10T21:15:29.262Z,38.51
2023-05-10T21:20:35.135Z,38.20
2023-05-10T21:25:40.996Z,38.14
2023-05-10T21:30:46.887Z,37.96
2023-05-10T21:35:53.696Z,38.36
2023-05-10T21:40:59.359Z,38.15
2023-05-10T21:46:05.427Z,38.90
2023-05-10T21:51:11.297Z,38.46
2023-05-10T21:56:17.212Z,38.66
2023-05-10T22:01:23.034Z,38.50
2023-05-10T22:06:29.702Z,38.66
2023-05-10T22:11:35.462Z,38.31
2023-05-10T22:16:41.115Z,38.70
2023-05-10T22:21:46.969Z,38.55
2023-05-10T22:26:56.707Z,38.58
2023-05-10T22:32:16.695Z,38.50
2023-05-10T22:37:23.824Z,38.35
2023-05-10T22:42:30.942Z,38.60
2023-05-10T22:47:36.318Z,38.86
2023-05-10T22:52:41.796Z,38.96
2023-05-10T22:57:47.465Z,38.96
2023-05-10T23:02:55.814Z,39.15
2023-05-10T23:08:02.016Z,39.46
2023-05-10T23:13:08.903Z,39.66
2023-05-10T23:18:14.333Z,39.44
2023-05-10T23:23:20.173Z,39.48
2023-05-10T23:28:27.236Z,39.91
2023-05-10T23:33:32.528Z,39.92
2023-05-10T23:38:40.155Z,40.51
2023-05-10T23:43:45.129Z,40.70
2023-05-10T23:48:50.604Z,41.94
2023-05-10T23:53:56.159Z,40.50
2023-05-10T23:59:01.615Z,41.03
